sensor_id;sensor_type;location;lat;lon;timestamp;temperature;humidity
52879;DHT22;38747;53.140;6.498;2022-08-01T00:00:32;18.10;99.90
52879;DHT22;38747;53.140;6.498;2022-08-01T00:02:58;18.10;99.90
52879;DHT22;38747;53.140;6.498;2022-08-01T00:05:23;18.10;99.90
52879;DHT22;38747;53.140;6.498;2022-08-01T00:07:53;18.10;99.90
52879;DHT22;38747;53.140;6.498;2022-08-01T00:10:19;18.10;99.90
52879;DHT22;38747;53.140;6.498;2022-08-01T00:12:46;18.10;99.90
52879;DHT22;38747;53.140;6.498;2022-08-01T00:15:13;18.10;99.90
52879;DHT22;38747;53.140;6.498;2022-08-01T00:17:40;18.20;99.90
52879;DHT22;38747;53.140;6.498;2022-08-01T00:20:07;18.10;99.90
52879;DHT22;38747;53.140;6.498;2022-08-01T00:22:34;18.10;99.90
52879;DHT22;38747;53.140;6.498;2022-08-01T00:25:00;18.10;99.90
52879;DHT22;38747;53.140;6.498;2022-08-01T00:27:26;18.10;99.90
52879;DHT22;38747;53.140;6.498;2022-08-01T00:29:52;18.10;99.90
52879;DHT22;38747;53.140;6.498;2022-08-01T00:32:18;18.10;99.90
52879;DHT22;38747;53.140;6.498;2022-08-01T00:34:44;18.00;99.90
52879;DHT22;38747;53.140;6.498;2022-08-01T00:37:10;18.00;99.90
52879;DHT22;38747;53.140;6.498;2022-08-01T00:39:35;18.10;99.90
52879;DHT22;38747;53.140;6.498;2022-08-01T00:42:07;18.00;99.90
52879;DHT22;38747;53.140;6.498;2022-08-01T00:44:34;18.00;99.90
52879;DHT22;38747;53.140;6.498;2022-08-01T00:46:59;18.00;99.90
52879;DHT22;38747;53.140;6.498;2022-08-01T00:49:25;18.00;99.90
52879;DHT22;38747;53.140;6.498;2022-08-01T00:51:51;18.00;99.90
52879;DHT22;38747;53.140;6.498;2022-08-01T00:54:16;17.90;99.90
52879;DHT22;38747;53.140;6.498;2022-08-01T00:56:42;18.00;99.90
52879;DHT22;38747;53.140;6.498;2022-08-01T00:59:09;17.90;99.90
52879;DHT22;38747;53.140;6.498;2022-08-01T01:01:36;17.90;99.90
52879;DHT22;38747;53.140;6.498;2022-08-01T01:04:01;17.90;99.90
52879;DHT22;38747;53.140;6.498;2022-08-01T01:06:46;17.90;99.90
52879;DHT22;38747;53.140;6.498;2022-08-01T01:14:47;17.90;99.90
52879;DHT22;38747;53.140;6.498;2022-08-01T01:17:17;17.90;99.90
52879;DHT22;38747;53.140;6.498;2022-08-01T01:19:51;17.90;99.90
52879;DHT22;38747;53.140;6.498;2022-08-01T01:30:33;17.80;99.90
52879;DHT22;38747;53.140;6.498;2022-08-01T01:33:02;17.80;99.90
52879;DHT22;38747;53.140;6.498;2022-08-01T01:35:31;17.80;99.90
52879;DHT22;38747;53.140;6.498;2022-08-01T01:38:24;17.80;99.90
52879;DHT22;38747;53.140;6.498;2022-08-01T01:40:52;17.70;99.90
52879;DHT22;38747;53.140;6.498;2022-08-01T01:43:20;17.70;99.90
52879;DHT22;38747;53.140;6.498;2022-08-01T01:45:47;17.70;99.90
52879;DHT22;38747;53.140;6.498;2022-08-01T01:48:16;17.60;99.90
52879;DHT22;38747;53.140;6.498;2022-08-01T01:50:45;17.60;99.90
52879;DHT22;38747;53.140;6.498;2022-08-01T01:53:18;17.60;99.90
52879;DHT22;38747;53.140;6.498;2022-08-01T01:55:48;17.60;99.90
52879;DHT22;38747;53.140;6.498;2022-08-01T01:58:15;17.50;99.90
52879;DHT22;38747;53.140;6.498;2022-08-01T02:00:44;17.50;99.90
52879;DHT22;38747;53.140;6.498;2022-08-01T02:03:12;17.50;99.90
52879;DHT22;38747;53.140;6.498;2022-08-01T02:05:39;17.40;99.90
52879;DHT22;38747;53.140;6.498;2022-08-01T02:08:29;17.40;99.90
52879;DHT22;38747;53.140;6.498;2022-08-01T02:10:55;17.50;99.90
52879;DHT22;38747;53.140;6.498;2022-08-01T02:13:41;17.40;99.90
52879;DHT22;38747;53.140;6.498;2022-08-01T02:16:08;17.40;99.90
52879;DHT22;38747;53.140;6.498;2022-08-01T02:18:36;17.30;99.90
52879;DHT22;38747;53.140;6.498;2022-08-01T02:21:03;17.30;99.90
52879;DHT22;38747;53.140;6.498;2022-08-01T02:23:33;17.30;99.90
52879;DHT22;38747;53.140;6.498;2022-08-01T02:26:01;17.30;99.90
52879;DHT22;38747;53.140;6.498;2022-08-01T02:28:56;17.30;99.90
52879;DHT22;38747;53.140;6.498;2022-08-01T02:31:21;17.30;99.90
52879;DHT22;38747;53.140;6.498;2022-08-01T02:33:58;17.30;99.90
52879;DHT22;38747;53.140;6.498;2022-08-01T02:36:32;17.30;99.90
52879;DHT22;38747;53.140;6.498;2022-08-01T02:39:00;17.20;99.90
52879;DHT22;38747;53.140;6.498;2022-08-01T02:41:27;17.20;99.90
52879;DHT22;38747;53.140;6.498;2022-08-01T02:43:59;17.20;99.90
52879;DHT22;38747;53.140;6.498;2022-08-01T02:46:56;17.20;99.90
52879;DHT22;38747;53.140;6.498;2022-08-01T02:49:24;17.20;99.90
52879;DHT22;38747;53.140;6.498;2022-08-01T02:52:13;17.20;99.90
52879;DHT22;38747;53.140;6.498;2022-08-01T02:54:40;17.20;99.90
52879;DHT22;38747;53.140;6.498;2022-08-01T02:57:08;17.10;99.90
52879;DHT22;38747;53.140;6.498;2022-08-01T02:59:37;17.10;99.90
52879;DHT22;38747;53.140;6.498;2022-08-01T03:02:04;17.10;99.90
52879;DHT22;38747;53.140;6.498;2022-08-01T03:04:33;17.10;99.90
52879;DHT22;38747;53.140;6.498;2022-08-01T03:07:02;17.10;99.90
52879;DHT22;38747;53.140;6.498;2022-08-01T03:09:30;17.10;99.90
52879;DHT22;38747;53.140;6.498;2022-08-01T03:11:59;17.10;99.90
52879;DHT22;38747;53.140;6.498;2022-08-01T03:14:27;17.00;99.90
52879;DHT22;38747;53.140;6.498;2022-08-01T03:16:54;17.00;99.90
52879;DHT22;38747;53.140;6.498;2022-08-01T03:19:24;17.00;99.90
52879;DHT22;38747;53.140;6.498;2022-08-01T03:21:52;17.00;99.90
52879;DHT22;38747;53.140;6.498;2022-08-01T03:24:18;17.00;99.90
52879;DHT22;38747;53.140;6.498;2022-08-01T03:26:45;17.00;99.90
52879;DHT22;38747;53.140;6.498;2022-08-01T03:29:17;17.00;99.90
52879;DHT22;38747;53.140;6.498;2022-08-01T03:31:48;17.00;99.90
52879;DHT22;38747;53.140;6.498;2022-08-01T03:34:15;16.90;99.90
52879;DHT22;38747;53.140;6.498;2022-08-01T03:37:11;16.90;99.90
52879;DHT22;38747;53.140;6.498;2022-08-01T03:39:45;16.90;99.90
52879;DHT22;38747;53.140;6.498;2022-08-01T03:42:16;16.90;99.90
52879;DHT22;38747;53.140;6.498;2022-08-01T03:44:49;16.90;99.90
52879;DHT22;38747;53.140;6.498;2022-08-01T03:47:17;16.90;99.90
52879;DHT22;38747;53.140;6.498;2022-08-01T03:49:44;16.90;99.90
52879;DHT22;38747;53.140;6.498;2022-08-01T03:52:19;16.90;99.90
52879;DHT22;38747;53.140;6.498;2022-08-01T03:54:49;16.80;99.90
52879;DHT22;38747;53.140;6.498;2022-08-01T03:57:17;16.80;99.90
52879;DHT22;38747;53.140;6.498;2022-08-01T03:59:43;16.80;99.90
52879;DHT22;38747;53.140;6.498;2022-08-01T04:02:11;16.80;99.90
52879;DHT22;38747;53.140;6.498;2022-08-01T04:04:37;16.80;99.90
52879;DHT22;38747;53.140;6.498;2022-08-01T04:07:36;16.80;99.90
52879;DHT22;38747;53.140;6.498;2022-08-01T04:09:57;16.80;99.90
52879;DHT22;38747;53.140;6.498;2022-08-01T04:12:23;16.80;99.90
52879;DHT22;38747;53.140;6.498;2022-08-01T04:14:50;16.80;99.90
52879;DHT22;38747;53.140;6.498;2022-08-01T04:17:16;16.80;99.90
52879;DHT22;38747;53.140;6.498;2022-08-01T04:19:42;16.80;99.90
52879;DHT22;38747;53.140;6.498;2022-08-01T04:22:21;16.80;99.90
52879;DHT22;38747;53.140;6.498;2022-08-01T04:24:49;16.90;99.90
52879;DHT22;38747;53.140;6.498;2022-08-01T04:27:27;16.80;99.90
52879;DHT22;38747;53.140;6.498;2022-08-01T04:29:56;16.80;99.90
52879;DHT22;38747;53.140;6.498;2022-08-01T04:32:25;16.70;99.90
52879;DHT22;38747;53.140;6.498;2022-08-01T04:34:54;16.80;99.90
52879;DHT22;38747;53.140;6.498;2022-08-01T04:37:31;16.70;99.90
52879;DHT22;38747;53.140;6.498;2022-08-01T04:39:57;16.70;99.90
52879;DHT22;38747;53.140;6.498;2022-08-01T04:42:24;16.70;99.90
52879;DHT22;38747;53.140;6.498;2022-08-01T04:44:50;16.70;99.90
52879;DHT22;38747;53.140;6.498;2022-08-01T04:47:16;16.70;99.90
52879;DHT22;38747;53.140;6.498;2022-08-01T04:49:42;16.70;99.90
52879;DHT22;38747;53.140;6.498;2022-08-01T04:52:14;16.70;99.90
52879;DHT22;38747;53.140;6.498;2022-08-01T04:54:43;16.70;99.90
52879;DHT22;38747;53.140;6.498;2022-08-01T04:57:09;16.70;99.90
52879;DHT22;38747;53.140;6.498;2022-08-01T04:59:40;16.70;99.90
52879;DHT22;38747;53.140;6.498;2022-08-01T05:02:11;16.70;99.90
52879;DHT22;38747;53.140;6.498;2022-08-01T05:04:38;16.70;99.90
52879;DHT22;38747;53.140;6.498;2022-08-01T05:10:21;16.70;99.90
52879;DHT22;38747;53.140;6.498;2022-08-01T05:12:55;16.70;99.90
52879;DHT22;38747;53.140;6.498;2022-08-01T05:15:21;16.60;99.90
52879;DHT22;38747;53.140;6.498;2022-08-01T05:17:46;16.60;99.90
52879;DHT22;38747;53.140;6.498;2022-08-01T05:20:15;16.60;99.90
52879;DHT22;38747;53.140;6.498;2022-08-01T05:23:00;16.60;99.90
52879;DHT22;38747;53.140;6.498;2022-08-01T05:25:25;16.60;99.90
52879;DHT22;38747;53.140;6.498;2022-08-01T05:27:53;16.60;99.90
52879;DHT22;38747;53.140;6.498;2022-08-01T05:30:22;16.60;99.90
52879;DHT22;38747;53.140;6.498;2022-08-01T05:32:54;16.60;99.90
52879;DHT22;38747;53.140;6.498;2022-08-01T05:35:25;16.60;99.90
52879;DHT22;38747;53.140;6.498;2022-08-01T05:38:21;16.50;99.90
52879;DHT22;38747;53.140;6.498;2022-08-01T05:40:50;16.50;99.90
52879;DHT22;38747;53.140;6.498;2022-08-01T05:43:16;16.60;99.90
52879;DHT22;38747;53.140;6.498;2022-08-01T05:45:45;16.60;99.90
52879;DHT22;38747;53.140;6.498;2022-08-01T05:48:16;16.60;99.90
52879;DHT22;38747;53.140;6.498;2022-08-01T05:50:42;16.60;99.90
52879;DHT22;38747;53.140;6.498;2022-08-01T05:53:17;16.50;99.90
52879;DHT22;38747;53.140;6.498;2022-08-01T06:22:21;16.60;99.90
52879;DHT22;38747;53.140;6.498;2022-08-01T07:03:36;16.90;99.90
52879;DHT22;38747;53.140;6.498;2022-08-01T07:06:03;17.00;99.90
52879;DHT22;38747;53.140;6.498;2022-08-01T07:08:41;17.10;99.90
52879;DHT22;38747;53.140;6.498;2022-08-01T07:11:10;17.20;99.90
52879;DHT22;38747;53.140;6.498;2022-08-01T07:13:36;17.30;99.90
52879;DHT22;38747;53.140;6.498;2022-08-01T07:16:02;17.30;99.90
52879;DHT22;38747;53.140;6.498;2022-08-01T10:53:10;19.90;99.90
52879;DHT22;38747;53.140;6.498;2022-08-01T10:58:35;20.10;99.90
52879;DHT22;38747;53.140;6.498;2022-08-01T11:01:17;20.20;99.90
52879;DHT22;38747;53.140;6.498;2022-08-01T11:04:08;20.40;99.90
52879;DHT22;38747;53.140;6.498;2022-08-01T11:09:03;20.00;99.90
52879;DHT22;38747;53.140;6.498;2022-08-01T11:11:29;20.20;99.90
52879;DHT22;38747;53.140;6.498;2022-08-01T11:14:04;20.20;99.90
52879;DHT22;38747;53.140;6.498;2022-08-01T11:16:36;20.20;99.90
52879;DHT22;38747;53.140;6.498;2022-08-01T11:19:04;20.10;99.90
52879;DHT22;38747;53.140;6.498;2022-08-01T11:27:21;20.10;99.90
52879;DHT22;38747;53.140;6.498;2022-08-01T11:32:49;20.40;99.90
52879;DHT22;38747;53.140;6.498;2022-08-01T11:35:15;20.10;99.90
52879;DHT22;38747;53.140;6.498;2022-08-01T11:37:41;19.90;99.90
52879;DHT22;38747;53.140;6.498;2022-08-01T11:40:23;20.10;99.90
52879;DHT22;38747;53.140;6.498;2022-08-01T11:43:15;20.30;99.90
52879;DHT22;38747;53.140;6.498;2022-08-01T11:45:55;20.50;99.90
52879;DHT22;38747;53.140;6.498;2022-08-01T11:48:25;20.80;99.90
52879;DHT22;38747;53.140;6.498;2022-08-01T11:50:53;20.90;99.90
52879;DHT22;38747;53.140;6.498;2022-08-01T11:53:19;20.90;99.90
52879;DHT22;38747;53.140;6.498;2022-08-01T11:55:50;20.80;99.90
52879;DHT22;38747;53.140;6.498;2022-08-01T11:58:24;20.70;99.90
52879;DHT22;38747;53.140;6.498;2022-08-01T12:00:54;20.80;99.90
52879;DHT22;38747;53.140;6.498;2022-08-01T12:05:50;20.70;99.90
52879;DHT22;38747;53.140;6.498;2022-08-01T12:10:51;20.40;99.90
52879;DHT22;38747;53.140;6.498;2022-08-01T12:13:17;20.50;99.90
52879;DHT22;38747;53.140;6.498;2022-08-01T12:15:44;20.60;99.90
52879;DHT22;38747;53.140;6.498;2022-08-01T12:18:10;20.60;99.90
52879;DHT22;38747;53.140;6.498;2022-08-01T12:20:37;20.60;99.90
52879;DHT22;38747;53.140;6.498;2022-08-01T12:23:08;20.70;99.90
52879;DHT22;38747;53.140;6.498;2022-08-01T12:25:35;20.70;99.90
52879;DHT22;38747;53.140;6.498;2022-08-01T12:28:04;20.90;99.90
52879;DHT22;38747;53.140;6.498;2022-08-01T12:30:31;21.00;99.90
52879;DHT22;38747;53.140;6.498;2022-08-01T12:33:00;21.00;99.90
52879;DHT22;38747;53.140;6.498;2022-08-01T12:35:28;21.00;99.90
52879;DHT22;38747;53.140;6.498;2022-08-01T12:38:06;21.00;99.90
52879;DHT22;38747;53.140;6.498;2022-08-01T12:40:35;21.20;99.90
52879;DHT22;38747;53.140;6.498;2022-08-01T12:43:06;21.20;99.90
52879;DHT22;38747;53.140;6.498;2022-08-01T12:45:37;21.30;99.90
52879;DHT22;38747;53.140;6.498;2022-08-01T12:48:10;21.30;99.90
52879;DHT22;38747;53.140;6.498;2022-08-01T12:50:41;21.20;99.90
52879;DHT22;38747;53.140;6.498;2022-08-01T12:53:11;21.30;99.90
52879;DHT22;38747;53.140;6.498;2022-08-01T12:55:49;21.30;99.90
52879;DHT22;38747;53.140;6.498;2022-08-01T12:58:16;21.40;99.90
52879;DHT22;38747;53.140;6.498;2022-08-01T13:00:44;21.20;99.90
52879;DHT22;38747;53.140;6.498;2022-08-01T13:03:15;21.10;99.90
52879;DHT22;38747;53.140;6.498;2022-08-01T13:08:09;21.30;99.90
52879;DHT22;38747;53.140;6.498;2022-08-01T13:10:38;21.30;99.90
52879;DHT22;38747;53.140;6.498;2022-08-01T13:13:04;21.50;99.90
52879;DHT22;38747;53.140;6.498;2022-08-01T13:15:30;21.60;99.90
52879;DHT22;38747;53.140;6.498;2022-08-01T13:17:58;21.60;99.30
52879;DHT22;38747;53.140;6.498;2022-08-01T13:20:30;21.70;99.90
52879;DHT22;38747;53.140;6.498;2022-08-01T13:23:11;21.90;99.90
52879;DHT22;38747;53.140;6.498;2022-08-01T13:25:50;21.90;99.90
52879;DHT22;38747;53.140;6.498;2022-08-01T13:28:27;21.90;99.90
52879;DHT22;38747;53.140;6.498;2022-08-01T13:33:18;21.80;95.50
52879;DHT22;38747;53.140;6.498;2022-08-01T13:35:44;21.90;99.90
52879;DHT22;38747;53.140;6.498;2022-08-01T13:38:10;21.80;99.90
52879;DHT22;38747;53.140;6.498;2022-08-01T13:40:35;21.70;99.90
52879;DHT22;38747;53.140;6.498;2022-08-01T13:43:01;21.60;99.90
52879;DHT22;38747;53.140;6.498;2022-08-01T13:45:26;21.70;99.90
52879;DHT22;38747;53.140;6.498;2022-08-01T13:47:52;21.70;98.60
52879;DHT22;38747;53.140;6.498;2022-08-01T13:50:17;21.70;99.90
52879;DHT22;38747;53.140;6.498;2022-08-01T13:52:43;21.90;99.90
52879;DHT22;38747;53.140;6.498;2022-08-01T13:55:08;22.00;99.90
52879;DHT22;38747;53.140;6.498;2022-08-01T13:57:34;21.90;99.90
52879;DHT22;38747;53.140;6.498;2022-08-01T14:00:00;21.90;99.90
52879;DHT22;38747;53.140;6.498;2022-08-01T14:02:26;22.00;99.90
52879;DHT22;38747;53.140;6.498;2022-08-01T14:04:53;21.80;99.90
52879;DHT22;38747;53.140;6.498;2022-08-01T14:07:20;21.80;99.60
52879;DHT22;38747;53.140;6.498;2022-08-01T14:09:46;21.60;98.70
52879;DHT22;38747;53.140;6.498;2022-08-01T14:12:12;21.60;97.20
52879;DHT22;38747;53.140;6.498;2022-08-01T14:14:37;21.40;99.10
52879;DHT22;38747;53.140;6.498;2022-08-01T14:17:04;21.50;99.90
52879;DHT22;38747;53.140;6.498;2022-08-01T14:19:30;21.60;99.90
52879;DHT22;38747;53.140;6.498;2022-08-01T14:21:56;21.60;99.90
52879;DHT22;38747;53.140;6.498;2022-08-01T14:24:22;21.50;99.90
52879;DHT22;38747;53.140;6.498;2022-08-01T14:26:48;21.30;99.90
52879;DHT22;38747;53.140;6.498;2022-08-01T14:29:14;21.20;99.90
52879;DHT22;38747;53.140;6.498;2022-08-01T14:31:39;21.10;99.90
52879;DHT22;38747;53.140;6.498;2022-08-01T14:34:05;21.10;99.90
52879;DHT22;38747;53.140;6.498;2022-08-01T14:36:31;21.00;99.90
52879;DHT22;38747;53.140;6.498;2022-08-01T14:38:57;21.00;99.90
52879;DHT22;38747;53.140;6.498;2022-08-01T14:41:22;20.90;99.90
52879;DHT22;38747;53.140;6.498;2022-08-01T14:43:48;20.70;99.90
52879;DHT22;38747;53.140;6.498;2022-08-01T14:46:13;20.70;99.90
52879;DHT22;38747;53.140;6.498;2022-08-01T14:48:39;20.80;99.90
52879;DHT22;38747;53.140;6.498;2022-08-01T14:51:05;20.80;99.90
52879;DHT22;38747;53.140;6.498;2022-08-01T14:53:32;20.80;99.90
52879;DHT22;38747;53.140;6.498;2022-08-01T14:55:58;20.60;99.90
52879;DHT22;38747;53.140;6.498;2022-08-01T14:58:24;20.60;99.90
52879;DHT22;38747;53.140;6.498;2022-08-01T15:00:49;20.40;99.90
52879;DHT22;38747;53.140;6.498;2022-08-01T15:03:20;20.50;99.90
52879;DHT22;38747;53.140;6.498;2022-08-01T15:05:46;20.30;99.90
52879;DHT22;38747;53.140;6.498;2022-08-01T15:08:11;20.20;99.90
52879;DHT22;38747;53.140;6.498;2022-08-01T15:10:37;20.10;99.90
52879;DHT22;38747;53.140;6.498;2022-08-01T15:13:03;20.20;99.90
52879;DHT22;38747;53.140;6.498;2022-08-01T15:15:29;20.20;99.90
52879;DHT22;38747;53.140;6.498;2022-08-01T15:17:56;20.20;99.90
52879;DHT22;38747;53.140;6.498;2022-08-01T15:20:22;20.20;99.90
52879;DHT22;38747;53.140;6.498;2022-08-01T15:22:47;20.10;99.90
52879;DHT22;38747;53.140;6.498;2022-08-01T15:25:13;19.90;99.90
52879;DHT22;38747;53.140;6.498;2022-08-01T15:27:39;19.80;99.90
52879;DHT22;38747;53.140;6.498;2022-08-01T15:30:05;19.80;99.90
52879;DHT22;38747;53.140;6.498;2022-08-01T15:32:34;19.90;99.90
52879;DHT22;38747;53.140;6.498;2022-08-01T15:35:00;19.90;99.90
52879;DHT22;38747;53.140;6.498;2022-08-01T15:37:25;19.90;99.90
52879;DHT22;38747;53.140;6.498;2022-08-01T15:39:51;19.80;99.90
52879;DHT22;38747;53.140;6.498;2022-08-01T15:42:17;19.80;99.90
52879;DHT22;38747;53.140;6.498;2022-08-01T15:44:43;19.70;99.90
52879;DHT22;38747;53.140;6.498;2022-08-01T15:47:09;19.70;99.90
52879;DHT22;38747;53.140;6.498;2022-08-01T15:49:35;19.70;99.90
52879;DHT22;38747;53.140;6.498;2022-08-01T15:52:06;19.70;99.90
52879;DHT22;38747;53.140;6.498;2022-08-01T15:54:32;19.60;99.90
52879;DHT22;38747;53.140;6.498;2022-08-01T15:56:58;19.70;99.90
52879;DHT22;38747;53.140;6.498;2022-08-01T15:59:23;19.60;99.90
52879;DHT22;38747;53.140;6.498;2022-08-01T16:01:49;19.60;99.90
52879;DHT22;38747;53.140;6.498;2022-08-01T16:04:15;19.50;99.90
52879;DHT22;38747;53.140;6.498;2022-08-01T16:06:41;19.50;99.90
52879;DHT22;38747;53.140;6.498;2022-08-01T16:09:07;19.50;99.90
52879;DHT22;38747;53.140;6.498;2022-08-01T16:11:33;19.50;99.90
52879;DHT22;38747;53.140;6.498;2022-08-01T16:13:59;19.50;99.90
52879;DHT22;38747;53.140;6.498;2022-08-01T16:16:24;19.50;99.90
52879;DHT22;38747;53.140;6.498;2022-08-01T16:18:50;19.40;99.90
52879;DHT22;38747;53.140;6.498;2022-08-01T16:21:16;19.40;99.90
52879;DHT22;38747;53.140;6.498;2022-08-01T16:23:43;19.40;99.90
52879;DHT22;38747;53.140;6.498;2022-08-01T16:26:09;19.40;99.90
52879;DHT22;38747;53.140;6.498;2022-08-01T16:28:35;19.40;99.90
52879;DHT22;38747;53.140;6.498;2022-08-01T16:31:01;19.40;99.90
52879;DHT22;38747;53.140;6.498;2022-08-01T16:33:26;19.40;99.90
52879;DHT22;38747;53.140;6.498;2022-08-01T16:35:52;19.30;99.90
52879;DHT22;38747;53.140;6.498;2022-08-01T16:38:18;19.30;99.90
52879;DHT22;38747;53.140;6.498;2022-08-01T16:40:45;19.30;99.90
52879;DHT22;38747;53.140;6.498;2022-08-01T16:43:13;19.20;99.90
52879;DHT22;38747;53.140;6.498;2022-08-01T16:45:39;19.10;99.90
52879;DHT22;38747;53.140;6.498;2022-08-01T16:48:07;19.10;99.90
52879;DHT22;38747;53.140;6.498;2022-08-01T16:50:34;19.10;99.90
52879;DHT22;38747;53.140;6.498;2022-08-01T16:52:59;19.10;99.90
52879;DHT22;38747;53.140;6.498;2022-08-01T16:55:25;19.10;99.90
52879;DHT22;38747;53.140;6.498;2022-08-01T16:57:50;19.00;99.90
52879;DHT22;38747;53.140;6.498;2022-08-01T17:00:17;19.00;99.90
52879;DHT22;38747;53.140;6.498;2022-08-01T17:02:44;19.00;99.90
52879;DHT22;38747;53.140;6.498;2022-08-01T17:05:10;19.00;99.90
52879;DHT22;38747;53.140;6.498;2022-08-01T17:07:36;18.90;99.90
52879;DHT22;38747;53.140;6.498;2022-08-01T17:10:03;18.90;99.90
52879;DHT22;38747;53.140;6.498;2022-08-01T17:12:32;18.90;99.90
52879;DHT22;38747;53.140;6.498;2022-08-01T17:14:57;18.90;99.90
52879;DHT22;38747;53.140;6.498;2022-08-01T17:17:23;18.80;99.90
52879;DHT22;38747;53.140;6.498;2022-08-01T17:19:49;18.80;99.90
52879;DHT22;38747;53.140;6.498;2022-08-01T17:22:18;18.80;99.90
52879;DHT22;38747;53.140;6.498;2022-08-01T17:24:43;18.80;99.90
52879;DHT22;38747;53.140;6.498;2022-08-01T17:27:09;18.80;99.90
52879;DHT22;38747;53.140;6.498;2022-08-01T17:29:35;18.80;99.90
52879;DHT22;38747;53.140;6.498;2022-08-01T17:32:00;18.80;99.90
52879;DHT22;38747;53.140;6.498;2022-08-01T17:34:26;18.80;99.90
52879;DHT22;38747;53.140;6.498;2022-08-01T17:36:51;18.80;99.90
52879;DHT22;38747;53.140;6.498;2022-08-01T17:39:17;18.80;99.90
52879;DHT22;38747;53.140;6.498;2022-08-01T17:41:43;18.90;99.90
52879;DHT22;38747;53.140;6.498;2022-08-01T17:44:09;19.00;99.90
52879;DHT22;38747;53.140;6.498;2022-08-01T17:46:35;19.10;99.90
52879;DHT22;38747;53.140;6.498;2022-08-01T17:49:01;19.20;99.90
52879;DHT22;38747;53.140;6.498;2022-08-01T17:51:28;19.30;99.90
52879;DHT22;38747;53.140;6.498;2022-08-01T17:53:53;19.30;99.90
52879;DHT22;38747;53.140;6.498;2022-08-01T17:56:19;19.30;99.90
52879;DHT22;38747;53.140;6.498;2022-08-01T17:59:12;19.20;99.90
52879;DHT22;38747;53.140;6.498;2022-08-01T18:01:38;19.10;99.90
52879;DHT22;38747;53.140;6.498;2022-08-01T18:04:04;19.10;99.90
52879;DHT22;38747;53.140;6.498;2022-08-01T18:06:30;18.90;99.90
52879;DHT22;38747;53.140;6.498;2022-08-01T18:08:55;18.90;99.90
52879;DHT22;38747;53.140;6.498;2022-08-01T18:11:22;18.80;99.90
52879;DHT22;38747;53.140;6.498;2022-08-01T18:13:55;18.60;99.90
52879;DHT22;38747;53.140;6.498;2022-08-01T18:16:23;18.50;99.90
52879;DHT22;38747;53.140;6.498;2022-08-01T18:18:49;18.40;99.90
52879;DHT22;38747;53.140;6.498;2022-08-01T18:21:17;18.30;99.90
52879;DHT22;38747;53.140;6.498;2022-08-01T18:23:46;18.20;99.90
52879;DHT22;38747;53.140;6.498;2022-08-01T18:26:11;18.10;99.90
52879;DHT22;38747;53.140;6.498;2022-08-01T18:28:37;18.10;99.90
52879;DHT22;38747;53.140;6.498;2022-08-01T18:31:31;18.00;99.90
52879;DHT22;38747;53.140;6.498;2022-08-01T18:33:57;18.00;99.90
52879;DHT22;38747;53.140;6.498;2022-08-01T18:36:22;17.90;99.90
52879;DHT22;38747;53.140;6.498;2022-08-01T18:38:48;17.90;99.90
52879;DHT22;38747;53.140;6.498;2022-08-01T18:41:14;17.90;99.90
52879;DHT22;38747;53.140;6.498;2022-08-01T18:43:49;17.90;99.90
52879;DHT22;38747;53.140;6.498;2022-08-01T18:46:21;17.80;99.90
52879;DHT22;38747;53.140;6.498;2022-08-01T18:48:46;17.80;99.90
52879;DHT22;38747;53.140;6.498;2022-08-01T18:51:12;17.80;99.90
52879;DHT22;38747;53.140;6.498;2022-08-01T18:53:38;17.70;99.90
52879;DHT22;38747;53.140;6.498;2022-08-01T18:56:06;17.70;99.90
52879;DHT22;38747;53.140;6.498;2022-08-01T18:58:42;17.60;99.90
52879;DHT22;38747;53.140;6.498;2022-08-01T19:01:09;17.60;99.90
52879;DHT22;38747;53.140;6.498;2022-08-01T19:03:35;17.60;99.90
52879;DHT22;38747;53.140;6.498;2022-08-01T19:06:09;17.50;99.90
52879;DHT22;38747;53.140;6.498;2022-08-01T19:08:35;17.50;99.90
52879;DHT22;38747;53.140;6.498;2022-08-01T19:11:03;17.40;99.90
52879;DHT22;38747;53.140;6.498;2022-08-01T19:13:34;17.30;99.90
52879;DHT22;38747;53.140;6.498;2022-08-01T19:16:03;17.30;99.90
52879;DHT22;38747;53.140;6.498;2022-08-01T19:18:29;17.20;99.90
52879;DHT22;38747;53.140;6.498;2022-08-01T19:20:54;17.10;99.90
52879;DHT22;38747;53.140;6.498;2022-08-01T19:23:20;17.10;99.90
52879;DHT22;38747;53.140;6.498;2022-08-01T19:26:04;17.10;99.90
52879;DHT22;38747;53.140;6.498;2022-08-01T19:28:50;17.00;99.90
52879;DHT22;38747;53.140;6.498;2022-08-01T19:31:20;17.00;99.90
52879;DHT22;38747;53.140;6.498;2022-08-01T19:33:47;17.00;99.90
52879;DHT22;38747;53.140;6.498;2022-08-01T19:36:15;16.90;99.90
52879;DHT22;38747;53.140;6.498;2022-08-01T19:38:41;16.90;99.90
52879;DHT22;38747;53.140;6.498;2022-08-01T19:41:07;16.80;99.90
52879;DHT22;38747;53.140;6.498;2022-08-01T19:43:39;16.70;99.90
52879;DHT22;38747;53.140;6.498;2022-08-01T19:46:05;16.70;99.90
52879;DHT22;38747;53.140;6.498;2022-08-01T19:48:36;16.70;99.90
52879;DHT22;38747;53.140;6.498;2022-08-01T19:51:05;16.60;99.90
52879;DHT22;38747;53.140;6.498;2022-08-01T19:53:51;16.50;99.90
52879;DHT22;38747;53.140;6.498;2022-08-01T19:56:23;16.40;99.90
52879;DHT22;38747;53.140;6.498;2022-08-01T19:59:06;16.30;99.90
52879;DHT22;38747;53.140;6.498;2022-08-01T20:01:33;16.30;99.90
52879;DHT22;38747;53.140;6.498;2022-08-01T20:04:02;16.30;99.90
52879;DHT22;38747;53.140;6.498;2022-08-01T20:06:33;16.20;99.90
52879;DHT22;38747;53.140;6.498;2022-08-01T20:09:00;16.20;99.90
52879;DHT22;38747;53.140;6.498;2022-08-01T20:11:26;16.10;99.90
52879;DHT22;38747;53.140;6.498;2022-08-01T20:14:02;16.00;99.90
52879;DHT22;38747;53.140;6.498;2022-08-01T20:16:31;15.90;99.90
52879;DHT22;38747;53.140;6.498;2022-08-01T20:19:00;15.70;99.90
52879;DHT22;38747;53.140;6.498;2022-08-01T20:21:27;15.60;99.90
52879;DHT22;38747;53.140;6.498;2022-08-01T20:23:53;15.50;99.90
52879;DHT22;38747;53.140;6.498;2022-08-01T20:26:24;15.40;99.90
52879;DHT22;38747;53.140;6.498;2022-08-01T20:28:58;15.40;99.90
52879;DHT22;38747;53.140;6.498;2022-08-01T20:31:28;15.30;99.90
52879;DHT22;38747;53.140;6.498;2022-08-01T20:33:55;15.20;99.90
52879;DHT22;38747;53.140;6.498;2022-08-01T20:36:23;15.20;99.90
52879;DHT22;38747;53.140;6.498;2022-08-01T20:38:51;15.10;99.90
52879;DHT22;38747;53.140;6.498;2022-08-01T20:41:18;15.00;99.90
52879;DHT22;38747;53.140;6.498;2022-08-01T20:44:12;15.00;99.90
52879;DHT22;38747;53.140;6.498;2022-08-01T20:46:37;14.90;99.90
52879;DHT22;38747;53.140;6.498;2022-08-01T20:49:03;14.90;99.90
52879;DHT22;38747;53.140;6.498;2022-08-01T20:51:29;14.80;99.90
52879;DHT22;38747;53.140;6.498;2022-08-01T20:54:01;14.70;99.90
52879;DHT22;38747;53.140;6.498;2022-08-01T21:02:05;14.60;99.90
52879;DHT22;38747;53.140;6.498;2022-08-01T21:10:16;14.30;99.90
52879;DHT22;38747;53.140;6.498;2022-08-01T21:12:58;14.30;99.90